Leewood, West Virginia
Current Conditions -  °F | °C
As of 7:54 AM on Thursday 18 Dec 2014 (Local Time) from KCRW Reporting Station
Overcast Overcast  
Wind Chill: 24°   Ceiling: 2300
Heat Index: 29°   Visibility: 10mi
Dew Point: 21°   Wind: 5mph
Humidity: 72%   Direction: 340°NNW
Pressure: 30.23"   Gusts: NA
Location:  38.07°N, 81.45°W
Report Text: KCRW 181254Z 34004KT 10SM OVC023 M02/M06 A3023 RMK AO2 SLP246 T10171061
Loading
Personal Weather Stations






























Interactive Weather Map New forecast layout! Learn more

10-Day Weather Forecast

Advertisements
Track Severe Weather on mobile